createdAt,value
2017-10-17T00:00:07.094Z,16.17
2017-10-17T00:01:07.067Z,16.25
2017-10-17T00:02:07.041Z,16.22
2017-10-17T00:03:07.023Z,16.25
2017-10-17T00:04:06.999Z,16.22
2017-10-17T00:05:06.980Z,16.13
2017-10-17T00:06:06.968Z,16.14
2017-10-17T00:07:06.937Z,16.22
2017-10-17T00:08:06.909Z,16.07
2017-10-17T00:09:06.901Z,16.17
2017-10-17T00:10:06.868Z,16.07
2017-10-17T00:11:06.847Z,16.23
2017-10-17T00:12:06.836Z,16.13
2017-10-17T00:13:06.805Z,16.11
2017-10-17T00:14:06.467Z,16.06
2017-10-17T00:15:06.756Z,16.14
2017-10-17T00:16:06.740Z,16.08
2017-10-17T00:17:06.723Z,16.13
2017-10-17T00:18:06.708Z,16.08
2017-10-17T00:19:06.686Z,16.07
2017-10-17T00:20:06.658Z,16.01
2017-10-17T00:21:06.635Z,15.98
2017-10-17T00:22:06.614Z,15.99
2017-10-17T00:23:06.595Z,15.99
2017-10-17T00:24:06.570Z,16.03
2017-10-17T00:25:06.550Z,15.96
2017-10-17T00:26:06.535Z,16.01
2017-10-17T00:27:06.514Z,15.93
2017-10-17T00:28:06.484Z,15.96
2017-10-17T00:29:06.147Z,15.89
2017-10-17T00:30:06.441Z,15.96
2017-10-17T00:31:06.430Z,16.04
2017-10-17T00:32:06.403Z,16.01
2017-10-17T00:33:06.380Z,15.99
2017-10-17T00:34:06.384Z,15.98
2017-10-17T00:35:06.013Z,16.01
2017-10-17T00:36:06.318Z,15.92
2017-10-17T00:37:06.300Z,15.93
2017-10-17T00:38:06.272Z,15.89
2017-10-17T00:39:06.246Z,15.93
2017-10-17T00:40:06.235Z,16.01
2017-10-17T00:41:06.203Z,15.98
2017-10-17T00:42:06.191Z,15.91
2017-10-17T00:43:06.167Z,15.89
2017-10-17T00:44:06.152Z,15.99
2017-10-17T00:45:06.149Z,15.89
2017-10-17T00:46:05.786Z,16.03
2017-10-17T00:47:05.756Z,15.96
2017-10-17T00:48:06.067Z,15.84
2017-10-17T00:49:06.049Z,15.85
2017-10-17T00:50:06.032Z,15.93
2017-10-17T00:51:05.996Z,15.85
2017-10-17T00:52:05.970Z,15.91
2017-10-17T00:53:05.956Z,15.98
2017-10-17T00:54:05.931Z,15.8
2017-10-17T00:55:05.923Z,15.93
2017-10-17T00:56:05.889Z,15.91
2017-10-17T00:57:05.865Z,15.81
2017-10-17T00:58:05.844Z,15.85
2017-10-17T00:59:05.828Z,15.81
2017-10-17T01:00:05.807Z,15.76
2017-10-17T01:01:05.788Z,15.78
2017-10-17T01:02:05.773Z,15.74
2017-10-17T01:03:05.768Z,15.78
2017-10-17T01:04:05.726Z,15.77
2017-10-17T01:05:05.697Z,15.74
2017-10-17T01:06:05.672Z,15.8
2017-10-17T01:07:05.672Z,15.77
2017-10-17T01:08:05.640Z,15.77
2017-10-17T01:09:05.611Z,15.77
2017-10-17T01:10:05.596Z,15.71
2017-10-17T01:11:05.577Z,15.7
2017-10-17T01:12:05.550Z,15.71
2017-10-17T01:13:05.525Z,15.59
2017-10-17T01:14:05.190Z,15.71
2017-10-17T01:15:05.480Z,15.7
2017-10-17T01:16:05.462Z,15.68
2017-10-17T01:17:05.440Z,15.64
2017-10-17T01:18:05.431Z,15.6
2017-10-17T01:19:05.399Z,15.59
2017-10-17T01:20:05.376Z,15.58
2017-10-17T01:21:05.347Z,15.52
2017-10-17T01:22:05.338Z,15.49
2017-10-17T01:23:05.312Z,15.55
2017-10-17T01:24:05.297Z,15.51
2017-10-17T01:25:05.261Z,15.52
2017-10-17T01:26:05.245Z,15.51
2017-10-17T01:27:05.234Z,15.52
2017-10-17T01:28:05.204Z,15.49
2017-10-17T01:29:05.189Z,15.49
2017-10-17T01:30:05.160Z,15.49
2017-10-17T01:31:05.137Z,15.48
2017-10-17T01:32:05.129Z,15.46
2017-10-17T01:33:05.104Z,15.51
2017-10-17T01:34:05.074Z,15.48
2017-10-17T01:35:05.053Z,15.44
2017-10-17T01:36:05.039Z,15.37
2017-10-17T01:37:05.010Z,15.37
2017-10-17T01:38:04.993Z,15.43
2017-10-17T01:39:04.969Z,15.38
2017-10-17T01:40:04.949Z,15.33
2017-10-17T01:41:04.933Z,15.35
2017-10-17T01:42:04.930Z,15.31
2017-10-17T01:43:04.887Z,15.3
2017-10-17T01:44:04.868Z,15.33
2017-10-17T01:45:04.842Z,15.33
2017-10-17T01:46:04.495Z,15.25
2017-10-17T01:47:04.795Z,15.3
2017-10-17T01:48:04.776Z,15.27
2017-10-17T01:49:04.431Z,15.28
2017-10-17T01:50:04.743Z,15.31
2017-10-17T01:51:04.708Z,15.28
2017-10-17T01:52:04.688Z,15.25
2017-10-17T01:53:04.354Z,15.28
2017-10-17T01:54:04.649Z,15.28
2017-10-17T01:55:04.623Z,15.23
2017-10-17T01:56:04.600Z,15.19
2017-10-17T01:57:04.584Z,15.27
2017-10-17T01:58:04.555Z,15.28
2017-10-17T01:59:04.544Z,15.19
2017-10-17T02:00:04.517Z,15.19
2017-10-17T02:01:04.502Z,15.15
2017-10-17T02:02:04.477Z,15.18
2017-10-17T02:03:04.454Z,15.19
2017-10-17T02:04:04.443Z,15.18
2017-10-17T02:05:04.412Z,15.15
2017-10-17T02:06:04.386Z,15.13
2017-10-17T02:07:04.364Z,15.13
2017-10-17T02:08:04.348Z,15.15
2017-10-17T02:09:04.324Z,15.12
2017-10-17T02:10:04.298Z,15.05
2017-10-17T02:11:04.278Z,15.11
2017-10-17T02:12:04.257Z,15.13
2017-10-17T02:13:04.236Z,15.07
2017-10-17T02:14:03.905Z,15.09
2017-10-17T02:15:04.202Z,15.09
2017-10-17T02:16:04.170Z,15.09
2017-10-17T02:17:04.147Z,15.09
2017-10-17T02:18:04.126Z,14.94
2017-10-17T02:19:03.787Z,15.05
2017-10-17T02:20:04.091Z,15.03
2017-10-17T02:21:04.065Z,14.97
2017-10-17T02:22:04.051Z,15.09
2017-10-17T02:23:04.032Z,15.04
2017-10-17T02:24:03.681Z,14.95
2017-10-17T02:25:03.976Z,14.94
2017-10-17T02:26:03.962Z,15.03
2017-10-17T02:27:03.943Z,15.01
2017-10-17T02:28:03.920Z,14.97
2017-10-17T02:29:03.886Z,15.05
2017-10-17T02:30:03.870Z,14.94
2017-10-17T02:31:03.853Z,14.97
2017-10-17T02:32:03.832Z,15.01
2017-10-17T02:33:03.803Z,15.03
2017-10-17T02:34:03.788Z,15.07
2017-10-17T02:35:03.759Z,14.95
2017-10-17T02:36:03.741Z,15.01
2017-10-17T02:37:03.733Z,15.01
2017-10-17T02:38:03.709Z,14.97
2017-10-17T02:39:03.677Z,14.97
2017-10-17T02:40:03.656Z,15.01
2017-10-17T02:41:03.636Z,14.97
2017-10-17T02:42:03.616Z,14.97
2017-10-17T02:43:03.602Z,15
2017-10-17T02:44:03.571Z,14.95
2017-10-17T02:45:03.542Z,15.01
2017-10-17T02:46:03.527Z,14.98
2017-10-17T02:47:03.511Z,14.86
2017-10-17T02:48:03.487Z,14.95
2017-10-17T02:49:03.461Z,14.9
2017-10-17T02:50:03.432Z,14.9
2017-10-17T02:51:03.409Z,14.86
2017-10-17T02:52:03.392Z,14.85
2017-10-17T02:53:03.381Z,14.87
2017-10-17T02:54:03.362Z,14.97
2017-10-17T02:55:03.012Z,14.95
2017-10-17T02:56:03.305Z,14.95
2017-10-17T02:57:03.290Z,14.82
2017-10-17T02:58:03.264Z,14.9
2017-10-17T02:59:03.244Z,14.94
2017-10-17T03:00:03.232Z,14.87
2017-10-17T03:01:03.197Z,14.9
2017-10-17T03:02:03.183Z,14.85
2017-10-17T03:03:03.157Z,14.9
2017-10-17T03:04:03.140Z,14.9
2017-10-17T03:05:03.119Z,14.86
2017-10-17T03:06:03.094Z,14.86
2017-10-17T03:07:03.072Z,14.95
2017-10-17T03:08:03.045Z,14.9
2017-10-17T03:09:03.031Z,14.87
2017-10-17T03:10:02.689Z,14.82
2017-10-17T03:11:02.995Z,14.94
2017-10-17T03:12:02.968Z,14.9
2017-10-17T03:13:02.953Z,14.87
2017-10-17T03:14:02.919Z,14.87
2017-10-17T03:15:02.893Z,14.91
2017-10-17T03:16:02.874Z,14.86
2017-10-17T03:17:02.856Z,14.85
2017-10-17T03:18:02.831Z,14.91
2017-10-17T03:19:02.816Z,14.86
2017-10-17T03:20:02.786Z,14.86
2017-10-17T03:21:02.765Z,14.91
2017-10-17T03:22:02.742Z,14.85
2017-10-17T03:23:02.720Z,14.78
2017-10-17T03:24:02.724Z,14.87
2017-10-17T03:25:02.695Z,14.82
2017-10-17T03:26:02.666Z,14.83
2017-10-17T03:27:02.633Z,14.86
2017-10-17T03:28:02.615Z,14.86
2017-10-17T03:29:02.597Z,14.79
2017-10-17T03:30:02.572Z,14.83
2017-10-17T03:31:02.552Z,14.79
2017-10-17T03:32:02.533Z,14.79
2017-10-17T03:33:02.508Z,14.83
2017-10-17T03:34:02.487Z,14.69
2017-10-17T03:35:02.469Z,14.82
2017-10-17T03:36:02.449Z,14.75
2017-10-17T03:37:02.418Z,14.71
2017-10-17T03:38:02.402Z,14.78
2017-10-17T03:39:02.383Z,14.78
2017-10-17T03:40:02.359Z,14.66
2017-10-17T03:41:02.335Z,14.69
2017-10-17T03:42:02.311Z,14.78
2017-10-17T03:43:02.302Z,14.72
2017-10-17T03:44:02.269Z,14.66
2017-10-17T03:45:02.240Z,14.66
2017-10-17T03:46:02.228Z,14.63
2017-10-17T03:47:02.210Z,14.71
2017-10-17T03:48:02.189Z,14.64
2017-10-17T03:49:02.159Z,14.64
2017-10-17T03:50:02.135Z,14.63
2017-10-17T03:51:02.121Z,14.54
2017-10-17T03:52:02.088Z,14.57
2017-10-17T03:53:02.076Z,14.57
2017-10-17T03:54:02.047Z,14.57
2017-10-17T03:55:02.026Z,14.6
2017-10-17T03:56:02.002Z,14.49
2017-10-17T03:57:01.984Z,14.48
2017-10-17T03:58:02.016Z,14.49
2017-10-17T03:59:01.992Z,14.45
2017-10-17T04:00:01.920Z,14.45
2017-10-17T04:01:01.897Z,14.41
2017-10-17T04:02:01.883Z,14.39
2017-10-17T04:03:01.852Z,14.45
2017-10-17T04:04:01.855Z,14.42
2017-10-17T04:05:01.810Z,14.39
2017-10-17T04:06:01.796Z,14.41
2017-10-17T04:07:01.766Z,14.29
2017-10-17T04:08:01.765Z,14.27
2017-10-17T04:09:01.732Z,14.36
2017-10-17T04:10:01.703Z,14.29
2017-10-17T04:11:01.690Z,14.3
2017-10-17T04:12:01.667Z,14.27
2017-10-17T04:13:01.637Z,14.31
2017-10-17T04:14:01.615Z,14.38
2017-10-17T04:15:01.593Z,14.31
2017-10-17T04:16:01.583Z,14.35
2017-10-17T04:17:01.231Z,14.27
2017-10-17T04:18:01.525Z,14.35
2017-10-17T04:19:01.504Z,14.29
2017-10-17T04:20:01.521Z,14.38
2017-10-17T04:21:01.470Z,14.27
2017-10-17T04:22:01.454Z,14.31
2017-10-17T04:23:01.100Z,14.3
2017-10-17T04:24:01.435Z,14.36
2017-10-17T04:25:01.383Z,14.31
2017-10-17T04:26:01.354Z,14.31
2017-10-17T04:27:01.339Z,14.3
2017-10-17T04:28:01.306Z,14.3
2017-10-17T04:29:01.292Z,14.3
2017-10-17T04:30:01.265Z,14.31
2017-10-17T04:31:01.246Z,14.34
2017-10-17T04:32:01.236Z,14.31
2017-10-17T04:33:01.201Z,14.36
2017-10-17T04:34:01.174Z,14.31
2017-10-17T04:35:01.153Z,14.31
2017-10-17T04:36:01.144Z,14.31
2017-10-17T04:37:01.115Z,14.31
2017-10-17T04:38:01.087Z,14.26
2017-10-17T04:39:01.068Z,14.3
2017-10-17T04:40:01.113Z,14.39
2017-10-17T04:41:01.030Z,14.29
2017-10-17T04:42:01.026Z,14.34
2017-10-17T04:43:00.987Z,14.31
2017-10-17T04:44:00.960Z,14.34
2017-10-17T04:45:00.938Z,14.35
2017-10-17T04:46:00.919Z,14.26
2017-10-17T04:47:00.895Z,14.34
2017-10-17T04:48:00.889Z,14.29
2017-10-17T04:49:00.905Z,14.35
2017-10-17T04:50:00.882Z,14.3
2017-10-17T04:51:00.810Z,14.31
2017-10-17T04:52:00.784Z,14.24
2017-10-17T04:53:00.784Z,14.31
2017-10-17T04:54:00.754Z,14.3
2017-10-17T04:55:00.719Z,14.35
2017-10-17T04:56:00.714Z,14.23
2017-10-17T04:57:00.726Z,14.19
2017-10-17T04:58:00.670Z,14.24
2017-10-17T04:59:00.640Z,14.2
2017-10-17T05:00:00.611Z,14.2
2017-10-17T05:01:00.595Z,14.23
2017-10-17T05:02:00.570Z,14.26
2017-10-17T05:03:00.238Z,14.29
2017-10-17T05:04:00.530Z,14.29
2017-10-17T05:05:00.509Z,14.3
2017-10-17T05:06:00.480Z,14.26
2017-10-17T05:07:00.500Z,14.29
2017-10-17T05:08:00.433Z,14.3
2017-10-17T05:09:00.411Z,14.41
2017-10-17T05:10:00.402Z,14.38
2017-10-17T05:11:00.367Z,14.46
2017-10-17T05:12:00.029Z,14.41
2017-10-17T05:13:00.329Z,14.45
2017-10-17T05:14:00.308Z,14.46
2017-10-17T05:15:00.283Z,14.53
2017-10-17T05:16:00.270Z,14.53
2017-10-17T05:17:00.249Z,14.53
2017-10-17T05:18:00.221Z,14.59
2017-10-17T05:19:00.246Z,14.56
2017-10-17T05:20:00.182Z,14.53
2017-10-17T05:21:00.205Z,14.61
2017-10-17T05:22:00.138Z,14.66
2017-10-17T05:23:00.117Z,14.59
2017-10-17T05:24:00.089Z,14.54
2017-10-17T05:25:00.074Z,14.59
2017-10-17T05:26:00.045Z,14.59
2017-10-17T05:27:00.069Z,14.61
2017-10-17T05:28:00.006Z,14.54
2017-10-17T05:28:59.982Z,14.49
2017-10-17T05:29:59.958Z,14.53
2017-10-17T05:30:59.931Z,14.53
2017-10-17T05:31:59.916Z,14.53
2017-10-17T05:32:59.574Z,14.45
2017-10-17T05:33:59.871Z,14.49
2017-10-17T05:34:59.855Z,14.44
2017-10-17T05:35:59.853Z,14.42
2017-10-17T05:36:59.806Z,14.42
2017-10-17T05:37:59.789Z,14.42
2017-10-17T05:38:59.775Z,14.45
2017-10-17T05:39:59.750Z,14.41
2017-10-17T05:40:59.724Z,14.29
2017-10-17T05:41:59.703Z,14.3
2017-10-17T05:42:59.672Z,14.29
2017-10-17T05:43:59.658Z,14.3
2017-10-17T05:44:59.636Z,14.31
2017-10-17T05:45:59.613Z,14.34
2017-10-17T05:46:59.586Z,14.34
2017-10-17T05:47:59.570Z,14.26
2017-10-17T05:48:59.543Z,14.27
2017-10-17T05:49:59.532Z,14.35
2017-10-17T05:50:59.499Z,14.3
2017-10-17T05:51:59.473Z,14.31
2017-10-17T05:52:59.464Z,14.29
2017-10-17T05:53:59.437Z,14.27
2017-10-17T05:54:59.413Z,14.29
2017-10-17T05:55:59.401Z,14.17
2017-10-17T05:56:59.375Z,14.23
2017-10-17T05:57:59.357Z,14.29
2017-10-17T05:58:59.327Z,14.26
2017-10-17T05:59:59.311Z,14.29
2017-10-17T06:00:59.277Z,14.26
2017-10-17T06:01:59.265Z,14.2
2017-10-17T06:02:59.246Z,14.19
2017-10-17T06:03:59.225Z,14.17
2017-10-17T06:04:59.195Z,14.27
2017-10-17T06:05:59.170Z,14.27
2017-10-17T06:06:59.152Z,14.21
2017-10-17T06:07:59.143Z,14.26
2017-10-17T06:08:59.111Z,14.3
2017-10-17T06:09:58.763Z,14.31
2017-10-17T06:10:59.060Z,14.3
2017-10-17T06:11:59.039Z,14.24
2017-10-17T06:12:59.014Z,14.27
2017-10-17T06:13:58.997Z,14.29
2017-10-17T06:14:58.980Z,14.26
2017-10-17T06:15:58.640Z,14.3
2017-10-17T06:16:58.937Z,14.27
2017-10-17T06:17:58.918Z,14.26
2017-10-17T06:18:58.894Z,14.34
2017-10-17T06:19:58.876Z,14.31
2017-10-17T06:20:58.842Z,14.27
2017-10-17T06:21:58.829Z,14.3
2017-10-17T06:22:58.799Z,14.34
2017-10-17T06:23:58.781Z,14.46
2017-10-17T06:24:58.764Z,14.38
2017-10-17T06:25:58.734Z,14.35
2017-10-17T06:26:58.721Z,14.42
2017-10-17T06:27:58.688Z,14.38
2017-10-17T06:28:58.670Z,14.35
2017-10-17T06:29:58.331Z,14.35
2017-10-17T06:30:58.626Z,14.42
2017-10-17T06:31:58.604Z,14.41
2017-10-17T06:32:58.588Z,14.44
2017-10-17T06:33:58.247Z,14.44
2017-10-17T06:34:58.545Z,14.41
2017-10-17T06:35:58.516Z,14.45
2017-10-17T06:36:58.497Z,14.45
2017-10-17T06:37:58.486Z,14.44
2017-10-17T06:38:58.452Z,14.46
2017-10-17T06:39:58.428Z,14.38
2017-10-17T06:40:58.408Z,14.52
2017-10-17T06:41:58.379Z,14.49
2017-10-17T06:42:58.367Z,14.49
2017-10-17T06:43:58.340Z,14.54
2017-10-17T06:44:58.330Z,14.57
2017-10-17T06:45:58.309Z,14.53
2017-10-17T06:46:58.291Z,14.63
2017-10-17T06:47:58.247Z,14.64
2017-10-17T06:48:58.233Z,14.63
2017-10-17T06:49:58.213Z,14.66
2017-10-17T06:50:58.188Z,14.78
2017-10-17T06:51:58.165Z,14.74
2017-10-17T06:52:58.149Z,14.79
2017-10-17T06:53:58.134Z,14.71
2017-10-17T06:54:58.101Z,14.75
2017-10-17T06:55:58.075Z,14.82
2017-10-17T06:56:58.063Z,14.86
2017-10-17T06:57:58.038Z,14.86
2017-10-17T06:58:58.016Z,14.82
2017-10-17T06:59:57.677Z,14.9
2017-10-17T07:00:57.976Z,14.83
2017-10-17T07:01:57.948Z,14.97
2017-10-17T07:02:57.615Z,14.97
2017-10-17T07:03:57.920Z,14.94
2017-10-17T07:04:57.888Z,15.01
2017-10-17T07:05:57.883Z,15.01
2017-10-17T07:06:57.844Z,15.05
2017-10-17T07:07:57.821Z,15.07
2017-10-17T07:08:57.804Z,15.07
2017-10-17T07:09:57.780Z,15.15
2017-10-17T07:10:57.767Z,15.16
2017-10-17T07:11:57.740Z,15.18
2017-10-17T07:12:57.725Z,15.19
2017-10-17T07:13:57.687Z,15.28
2017-10-17T07:14:57.677Z,15.23
2017-10-17T07:15:57.647Z,15.35
2017-10-17T07:16:57.633Z,15.35
2017-10-17T07:17:57.632Z,15.41
2017-10-17T07:18:57.584Z,15.41
2017-10-17T07:19:57.558Z,15.51
2017-10-17T07:20:57.552Z,15.48
2017-10-17T07:21:57.523Z,15.52
2017-10-17T07:22:57.497Z,15.51
2017-10-17T07:23:57.483Z,15.49
2017-10-17T07:24:57.454Z,15.51
2017-10-17T07:25:57.431Z,15.51
2017-10-17T07:26:57.416Z,15.48
2017-10-17T07:27:57.395Z,15.49
2017-10-17T07:28:57.378Z,15.53
2017-10-17T07:29:57.352Z,15.56
2017-10-17T07:30:57.335Z,15.58
2017-10-17T07:31:57.313Z,15.6
2017-10-17T07:32:57.292Z,15.66
2017-10-17T07:33:57.273Z,15.68
2017-10-17T07:34:57.263Z,15.71
2017-10-17T07:35:57.223Z,15.73
2017-10-17T07:36:57.198Z,15.76
2017-10-17T07:37:57.183Z,15.8
2017-10-17T07:38:56.839Z,15.8
2017-10-17T07:39:57.142Z,15.8
2017-10-17T07:40:57.112Z,15.8
2017-10-17T07:41:57.092Z,15.73
2017-10-17T07:42:56.757Z,15.77
2017-10-17T07:43:57.050Z,15.8
2017-10-17T07:44:57.042Z,15.84
2017-10-17T07:45:57.014Z,15.93
2017-10-17T07:46:56.989Z,15.86
2017-10-17T07:47:56.974Z,15.92
2017-10-17T07:48:56.949Z,15.96
2017-10-17T07:49:56.935Z,15.96
2017-10-17T07:50:56.903Z,16.03
2017-10-17T07:51:56.884Z,16.03
2017-10-17T07:52:56.863Z,15.96
2017-10-17T07:53:56.525Z,16.03
2017-10-17T07:54:56.510Z,15.92
2017-10-17T07:55:56.796Z,15.91
2017-10-17T07:56:56.770Z,15.93
2017-10-17T07:57:56.759Z,15.91
2017-10-17T07:58:56.735Z,15.85
2017-10-17T07:59:56.725Z,15.93
2017-10-17T08:00:56.692Z,16.04
2017-10-17T08:01:56.690Z,16.01
2017-10-17T08:02:56.649Z,15.96
2017-10-17T08:03:56.630Z,15.98
2017-10-17T08:04:56.610Z,15.96
2017-10-17T08:05:56.589Z,15.93
2017-10-17T08:06:56.567Z,16.04
2017-10-17T08:07:56.541Z,16.01
2017-10-17T08:08:56.525Z,16.08
2017-10-17T08:09:56.502Z,16.07
2017-10-17T08:10:56.484Z,16.25
2017-10-17T08:11:56.465Z,16.25
2017-10-17T08:12:56.440Z,16.44
2017-10-17T08:13:56.421Z,16.45
2017-10-17T08:14:56.404Z,16.57
2017-10-17T08:15:56.378Z,16.69
2017-10-17T08:16:56.359Z,16.75
2017-10-17T08:17:56.337Z,16.8
2017-10-17T08:18:56.330Z,16.91
2017-10-17T08:19:56.313Z,16.88
2017-10-17T08:20:56.278Z,16.91
2017-10-17T08:21:56.260Z,16.87
2017-10-17T08:22:56.246Z,16.8
2017-10-17T08:23:56.213Z,16.87
2017-10-17T08:24:56.193Z,16.88
2017-10-17T08:25:56.175Z,16.85
2017-10-17T08:26:56.159Z,16.87
2017-10-17T08:27:56.137Z,16.87
2017-10-17T08:28:56.109Z,16.95
2017-10-17T08:29:56.091Z,16.8
2017-10-17T08:30:56.071Z,16.8
2017-10-17T08:31:56.047Z,16.92
2017-10-17T08:32:56.040Z,16.9
2017-10-17T08:33:56.020Z,16.78
2017-10-17T08:34:55.986Z,16.82
2017-10-17T08:35:55.975Z,16.9
2017-10-17T08:36:55.945Z,16.9
2017-10-17T08:37:55.925Z,16.87
2017-10-17T08:38:55.904Z,16.85
2017-10-17T08:39:55.883Z,16.82
2017-10-17T08:40:55.866Z,16.8
2017-10-17T08:41:55.846Z,16.87
2017-10-17T08:42:55.828Z,16.88
2017-10-17T08:43:55.818Z,16.85
2017-10-17T08:44:55.793Z,16.92
2017-10-17T08:45:55.776Z,16.91
2017-10-17T08:46:55.752Z,16.9
2017-10-17T08:47:55.725Z,16.91
2017-10-17T08:48:55.708Z,16.96
2017-10-17T08:49:55.687Z,17.02
2017-10-17T08:50:55.657Z,17
2017-10-17T08:51:55.642Z,17.06
2017-10-17T08:52:55.616Z,17.05
2017-10-17T08:53:55.601Z,17.12
2017-10-17T08:54:55.586Z,17.21
2017-10-17T08:55:55.574Z,17.2
2017-10-17T08:56:55.548Z,17.3
2017-10-17T08:57:55.575Z,17.38
2017-10-17T08:58:55.487Z,17.33
2017-10-17T08:59:55.158Z,17.39
2017-10-17T09:00:55.463Z,17.39
2017-10-17T09:01:55.444Z,17.39
2017-10-17T09:02:55.416Z,17.33
2017-10-17T09:03:55.398Z,17.39
2017-10-17T09:04:55.369Z,17.3
2017-10-17T09:05:55.358Z,17.42
2017-10-17T09:06:55.339Z,17.54
2017-10-17T09:07:55.326Z,17.55
2017-10-17T09:08:55.293Z,17.65
2017-10-17T09:09:55.272Z,17.6
2017-10-17T09:10:55.263Z,17.62
2017-10-17T09:11:54.917Z,17.58
2017-10-17T09:12:55.219Z,17.66
2017-10-17T09:13:55.201Z,17.71
2017-10-17T09:14:55.172Z,17.71
2017-10-17T09:15:55.147Z,17.71
2017-10-17T09:16:55.136Z,17.71
2017-10-17T09:17:55.123Z,17.71
2017-10-17T09:18:55.101Z,17.76
2017-10-17T09:19:55.092Z,17.73
2017-10-17T09:20:55.056Z,17.74
2017-10-17T09:21:55.044Z,17.76
2017-10-17T09:22:55.016Z,17.79
2017-10-17T09:23:55.000Z,17.86
2017-10-17T09:24:54.973Z,17.86
2017-10-17T09:25:54.965Z,17.98
2017-10-17T09:26:54.304Z,17.94
2017-10-17T09:27:54.914Z,17.89
2017-10-17T09:28:54.898Z,17.89
2017-10-17T09:29:54.877Z,17.92
2017-10-17T09:30:54.854Z,17.94
2017-10-17T09:31:54.839Z,17.91
2017-10-17T09:32:54.821Z,17.84
2017-10-17T09:33:54.793Z,18.01
2017-10-17T09:34:54.774Z,17.98
2017-10-17T09:35:54.756Z,17.96
2017-10-17T09:36:54.779Z,17.99
2017-10-17T09:37:54.707Z,18.02
2017-10-17T09:38:54.375Z,17.86
2017-10-17T09:39:54.973Z,18.05
2017-10-17T09:40:54.654Z,17.89
2017-10-17T09:41:54.630Z,17.98
2017-10-17T09:42:54.623Z,18.02
2017-10-17T09:43:54.590Z,18.09
2017-10-17T09:44:54.573Z,18.1
2017-10-17T09:45:54.556Z,18.02
2017-10-17T09:46:54.540Z,18.09
2017-10-17T09:47:54.518Z,18.19
2017-10-17T09:48:54.739Z,18.17
2017-10-17T09:49:54.479Z,18.19
2017-10-17T09:50:54.465Z,18.21
2017-10-17T09:51:54.470Z,18.25
2017-10-17T09:52:54.411Z,18.23
2017-10-17T09:53:54.395Z,18.28
2017-10-17T09:54:54.374Z,18.17
2017-10-17T09:55:54.355Z,18.25
2017-10-17T09:56:54.341Z,18.19
2017-10-17T09:57:54.322Z,18.13
2017-10-17T09:58:54.301Z,18.09
2017-10-17T09:59:54.282Z,18.09
2017-10-17T10:00:54.266Z,18.02
2017-10-17T10:01:54.234Z,18.01
2017-10-17T10:02:54.218Z,18.09
2017-10-17T10:03:54.207Z,18.14
2017-10-17T10:04:54.179Z,18.07
2017-10-17T10:05:54.161Z,18.11
2017-10-17T10:06:54.140Z,18.19
2017-10-17T10:07:53.796Z,18.21
2017-10-17T10:08:54.098Z,18.19
2017-10-17T10:09:54.078Z,18.14
2017-10-17T10:10:54.065Z,18.17
2017-10-17T10:11:54.037Z,18.11
2017-10-17T10:12:54.015Z,18.16
2017-10-17T10:13:54.008Z,18.1
2017-10-17T10:14:53.982Z,18.17
2017-10-17T10:15:53.971Z,18.19
2017-10-17T10:16:53.937Z,18.21
2017-10-17T10:17:53.926Z,18.21
2017-10-17T10:18:53.899Z,18.29
2017-10-17T10:19:53.559Z,18.32
2017-10-17T10:20:53.543Z,18.28
2017-10-17T10:21:53.833Z,18.31
2017-10-17T10:22:53.821Z,18.39
2017-10-17T10:23:53.814Z,18.35
2017-10-17T10:24:53.784Z,18.44
2017-10-17T10:25:53.760Z,18.49
2017-10-17T10:26:53.739Z,18.49
2017-10-17T10:27:53.723Z,18.5
2017-10-17T10:28:53.710Z,18.54
2017-10-17T10:29:53.371Z,18.56
2017-10-17T10:30:53.669Z,18.56
2017-10-17T10:31:53.660Z,18.51
2017-10-17T10:32:53.621Z,18.54
2017-10-17T10:33:53.602Z,18.64
2017-10-17T10:34:53.263Z,18.56
2017-10-17T10:35:53.566Z,18.54
2017-10-17T10:36:53.543Z,18.5
2017-10-17T10:37:53.526Z,18.5
2017-10-17T10:38:53.503Z,18.57
2017-10-17T10:39:53.488Z,18.57
2017-10-17T10:40:53.468Z,18.56
2017-10-17T10:41:53.451Z,18.66
2017-10-17T10:42:53.430Z,18.56
2017-10-17T10:43:53.417Z,18.62
2017-10-17T10:44:53.387Z,18.56
2017-10-17T10:45:53.052Z,18.64
2017-10-17T10:46:53.351Z,18.75
2017-10-17T10:47:53.340Z,18.74
2017-10-17T10:48:53.346Z,18.78
2017-10-17T10:49:53.293Z,18.71
2017-10-17T10:50:53.274Z,18.71
2017-10-17T10:51:53.251Z,18.76
2017-10-17T10:52:53.246Z,18.78
2017-10-17T10:53:53.211Z,18.76
2017-10-17T10:54:53.207Z,18.71
2017-10-17T10:55:53.193Z,18.79
2017-10-17T10:56:53.159Z,18.75
2017-10-17T10:57:53.135Z,18.78
2017-10-17T10:58:53.114Z,18.72
2017-10-17T10:59:53.091Z,18.78
2017-10-17T11:00:52.759Z,18.74
2017-10-17T11:01:52.747Z,18.82
2017-10-17T11:02:53.042Z,18.79
2017-10-17T11:03:53.020Z,18.75
2017-10-17T11:04:53.005Z,18.82
2017-10-17T11:05:52.665Z,18.75
2017-10-17T11:06:52.960Z,18.83
2017-10-17T11:07:52.966Z,18.76
2017-10-17T11:08:52.918Z,18.82
2017-10-17T11:09:52.904Z,18.75
2017-10-17T11:10:52.899Z,18.75
2017-10-17T11:11:52.870Z,18.74
2017-10-17T11:12:52.861Z,18.66
2017-10-17T11:13:52.830Z,18.84
2017-10-17T11:14:52.804Z,18.86
2017-10-17T11:15:52.786Z,18.93
2017-10-17T11:16:52.758Z,18.86
2017-10-17T11:17:52.743Z,18.86
2017-10-17T11:18:52.404Z,18.84
2017-10-17T11:19:52.703Z,18.99
2017-10-17T11:20:52.703Z,18.99
2017-10-17T11:21:52.675Z,19.01
2017-10-17T11:22:52.643Z,18.96
2017-10-17T11:23:52.628Z,18.99
2017-10-17T11:24:52.619Z,18.96
2017-10-17T11:25:52.593Z,19.05
2017-10-17T11:26:52.578Z,19.12
2017-10-17T11:27:52.551Z,19.15
2017-10-17T11:28:52.532Z,19.16
2017-10-17T11:29:52.513Z,19.17
2017-10-17T11:30:52.178Z,19.15
2017-10-17T11:31:52.484Z,19.21
2017-10-17T11:32:52.156Z,19.17
2017-10-17T11:33:52.436Z,19.15
2017-10-17T11:34:52.410Z,19.12
2017-10-17T11:35:52.446Z,19.17
2017-10-17T11:36:52.380Z,19.1
2017-10-17T11:37:52.358Z,19.05
2017-10-17T11:38:52.339Z,18.96
2017-10-17T11:39:52.319Z,19.01
2017-10-17T11:40:52.299Z,18.94
2017-10-17T11:41:51.958Z,18.91
2017-10-17T11:42:52.264Z,18.84
2017-10-17T11:43:52.245Z,18.89
2017-10-17T11:44:52.230Z,18.86
2017-10-17T11:45:52.198Z,18.82
2017-10-17T11:46:52.188Z,18.78
2017-10-17T11:47:52.169Z,18.74
2017-10-17T11:48:52.154Z,18.71
2017-10-17T11:49:52.124Z,18.72
2017-10-17T11:50:52.104Z,18.78
2017-10-17T11:51:52.096Z,18.75
2017-10-17T11:52:52.069Z,18.6
2017-10-17T11:53:52.059Z,18.62
2017-10-17T11:54:52.022Z,18.64
2017-10-17T11:55:52.009Z,18.65
2017-10-17T11:56:52.027Z,18.65
2017-10-17T11:57:51.965Z,18.59
2017-10-17T11:58:51.958Z,18.62
2017-10-17T11:59:51.610Z,18.65
2017-10-17T12:00:51.911Z,18.72
2017-10-17T12:01:51.562Z,18.59
2017-10-17T12:02:51.873Z,18.6
2017-10-17T12:03:51.853Z,18.64
2017-10-17T12:04:51.832Z,18.68
2017-10-17T12:05:51.807Z,18.71
2017-10-17T12:06:51.485Z,18.71
2017-10-17T12:07:51.787Z,18.75
2017-10-17T12:08:51.751Z,18.75
2017-10-17T12:09:51.724Z,18.83
2017-10-17T12:10:51.708Z,18.76
2017-10-17T12:11:51.689Z,18.78
2017-10-17T12:12:51.677Z,18.76
2017-10-17T12:13:51.694Z,18.74
2017-10-17T12:14:51.632Z,18.74
2017-10-17T12:15:51.616Z,18.83
2017-10-17T12:16:51.593Z,18.84
2017-10-17T12:17:51.574Z,18.82
2017-10-17T12:18:51.555Z,18.83
2017-10-17T12:19:51.532Z,18.9
2017-10-17T12:20:51.542Z,18.91
2017-10-17T12:21:51.496Z,18.89
2017-10-17T12:22:51.487Z,18.74
2017-10-17T12:23:51.455Z,18.75
2017-10-17T12:24:51.438Z,18.75
2017-10-17T12:25:51.415Z,18.79
2017-10-17T12:26:51.401Z,18.75
2017-10-17T12:27:51.404Z,18.79
2017-10-17T12:28:51.089Z,18.78
2017-10-17T12:29:51.336Z,18.76
2017-10-17T12:30:51.321Z,18.72
2017-10-17T12:31:51.303Z,18.69
2017-10-17T12:32:51.278Z,18.78
2017-10-17T12:33:51.275Z,18.64
2017-10-17T12:34:51.234Z,18.76
2017-10-17T12:35:51.215Z,18.76
2017-10-17T12:36:51.199Z,18.76
2017-10-17T12:37:51.186Z,18.76
2017-10-17T12:38:50.847Z,18.59
2017-10-17T12:39:51.137Z,18.74
2017-10-17T12:40:51.113Z,18.74
2017-10-17T12:41:51.102Z,18.62
2017-10-17T12:42:51.087Z,18.69
2017-10-17T12:43:51.049Z,18.65
2017-10-17T12:44:51.039Z,18.72
2017-10-17T12:45:51.025Z,18.62
2017-10-17T12:46:50.999Z,18.64
2017-10-17T12:47:50.689Z,18.6
2017-10-17T12:48:50.961Z,18.65
2017-10-17T12:49:50.937Z,18.62
2017-10-17T12:50:50.923Z,18.62
2017-10-17T12:51:50.905Z,18.62
2017-10-17T12:52:50.879Z,18.74
2017-10-17T12:53:50.870Z,18.59
2017-10-17T12:54:50.836Z,18.62